TimeAKST,TemperatureF,Dew PointF,Humidity,Sea Level PressureIn,VisibilityMPH,Wind Direction,Wind SpeedMPH,Gust SpeedMPH,PrecipitationIn,Events,Conditions,WindDirDegrees,DateUTC
12:53 AM,10.9,3.0,70,28.95,10.0,NNE,26.5,36.8,N/A,,Clear,20,2011-11-23 09:53:00
1:53 AM,14.0,3.9,64,28.97,10.0,North,19.6,29.9,N/A,,Clear,10,2011-11-23 10:53:00
3:53 AM,16.0,3.9,59,28.98,10.0,North,21.9,39.1,N/A,,Clear,10,2011-11-23 12:53:00
4:53 AM,15.1,6.1,68,28.98,10.0,NNE,16.1,33.4,N/A,,Clear,20,2011-11-23 13:53:00
5:53 AM,15.1,6.1,68,28.98,10.0,NNE,18.4,31.1,N/A,,Clear,20,2011-11-23 14:53:00
6:53 AM,16.0,6.1,65,28.98,10.0,North,20.7,35.7,N/A,,Clear,360,2011-11-23 15:53:00
7:53 AM,14.0,6.1,71,28.99,10.0,NNE,17.3,26.5,N/A,,Clear,30,2011-11-23 16:53:00
8:53 AM,15.1,6.1,68,29.01,10.0,North,21.9,29.9,N/A,,Clear,10,2011-11-23 17:53:00
9:53 AM,14.0,5.0,67,29.01,10.0,North,17.3,24.2,N/A,,Clear,10,2011-11-23 18:53:00
10:53 AM,16.0,5.0,62,29.02,10.0,North,20.7,33.4,N/A,,Clear,10,2011-11-23 19:53:00
11:53 AM,15.1,6.1,68,29.02,10.0,NNE,17.3,25.3,N/A,,Clear,20,2011-11-23 20:53:00
12:53 PM,15.1,6.1,68,29.02,10.0,NNE,16.1,-,N/A,,Clear,20,2011-11-23 21:53:00
1:53 PM,16.0,7.0,68,29.02,10.0,NNE,18.4,28.8,N/A,,Clear,20,2011-11-23 22:53:00
2:53 PM,17.1,7.0,65,29.02,10.0,NNE,17.3,26.5,N/A,,Clear,30,2011-11-23 23:53:00
3:53 PM,16.0,7.0,68,29.00,10.0,NNE,19.6,28.8,N/A,,Partly Cloudy,20,2011-11-24 00:53:00
4:53 PM,15.1,7.0,70,29.01,10.0,NE,18.4,26.5,N/A,,Overcast,40,2011-11-24 01:53:00
5:53 PM,14.0,6.1,71,29.01,10.0,NNE,13.8,26.5,N/A,,Overcast,30,2011-11-24 02:53:00
6:53 PM,14.0,6.1,71,29.01,10.0,NNE,15.0,24.2,N/A,,Clear,20,2011-11-24 03:53:00
7:53 PM,14.0,5.0,67,29.01,10.0,NNE,15.0,26.5,N/A,,Clear,20,2011-11-24 04:53:00
8:53 PM,12.0,5.0,73,29.02,10.0,NNE,12.7,23.0,N/A,,Clear,20,2011-11-24 05:53:00
9:53 PM,12.9,5.0,71,29.03,10.0,North,16.1,25.3,N/A,,Clear,360,2011-11-24 06:53:00
10:53 PM,12.0,5.0,73,29.03,10.0,North,15.0,26.5,N/A,,Partly Cloudy,10,2011-11-24 07:53:00
11:53 PM,12.9,5.0,71,29.03,10.0,NNE,16.1,31.1,N/A,,Mostly Cloudy,20,2011-11-24 08:53:00